createdAt,value
2022-12-12T00:00:36.420Z,3.77
2022-12-12T00:03:05.959Z,3.66
2022-12-12T00:05:33.779Z,3.58
2022-12-12T00:08:01.512Z,3.60
2022-12-12T00:10:29.504Z,3.63
2022-12-12T00:12:57.273Z,3.75
2022-12-12T00:15:24.971Z,3.86
2022-12-12T00:17:52.626Z,3.88
2022-12-12T00:20:21.783Z,3.82
2022-12-12T00:22:49.494Z,3.67
2022-12-12T00:25:17.203Z,3.61
2022-12-12T00:27:44.988Z,3.44
2022-12-12T00:30:13.445Z,3.61
2022-12-12T00:32:41.187Z,3.56
2022-12-12T00:35:09.747Z,3.50
2022-12-12T00:37:39.064Z,3.61
2022-12-12T00:40:08.158Z,3.67
2022-12-12T00:42:35.896Z,3.69
2022-12-12T00:45:05.723Z,3.59
2022-12-12T00:47:33.432Z,3.54
2022-12-12T00:50:01.270Z,3.71
2022-12-12T00:52:28.975Z,3.75
2022-12-12T00:54:58.882Z,3.67
2022-12-12T00:57:26.580Z,3.50
2022-12-12T00:59:54.249Z,3.54
2022-12-12T01:02:27.811Z,3.67
2022-12-12T01:04:55.903Z,3.75
2022-12-12T01:07:23.640Z,3.85
2022-12-12T01:09:51.332Z,3.92
2022-12-12T01:12:20.379Z,3.91
2022-12-12T01:14:48.119Z,3.81
2022-12-12T01:17:15.806Z,3.77
2022-12-12T01:19:43.635Z,3.63
2022-12-12T01:22:11.340Z,3.64
2022-12-12T01:24:39.055Z,3.63
2022-12-12T01:27:06.814Z,3.70
2022-12-12T01:29:36.406Z,3.79
2022-12-12T01:32:04.202Z,3.65
2022-12-12T01:34:32.080Z,3.49
2022-12-12T01:36:59.830Z,3.39
2022-12-12T01:39:27.576Z,3.27
2022-12-12T01:41:55.385Z,3.22
2022-12-12T01:44:44.580Z,3.21
2022-12-12T01:47:14.542Z,3.16
2022-12-12T01:49:45.745Z,3.13
2022-12-12T01:52:18.243Z,3.19
2022-12-12T01:54:51.228Z,3.29
2022-12-12T01:57:23.004Z,3.35
2022-12-12T01:59:52.196Z,3.54
2022-12-12T02:02:20.022Z,3.71
2022-12-12T02:04:47.908Z,3.84
2022-12-12T02:07:17.710Z,3.84
2022-12-12T02:09:46.057Z,3.73
2022-12-12T02:12:14.848Z,3.70
2022-12-12T02:14:46.438Z,3.60
2022-12-12T02:17:31.201Z,3.58
2022-12-12T02:20:40.754Z,3.55
2022-12-12T02:23:50.625Z,3.34
2022-12-12T02:26:45.697Z,3.46
2022-12-12T02:29:47.468Z,3.40
2022-12-12T02:32:25.487Z,3.37
2022-12-12T02:35:04.304Z,3.24
2022-12-12T02:37:36.036Z,3.19
2022-12-12T02:40:14.233Z,3.15
2022-12-12T02:42:46.302Z,3.15
2022-12-12T02:45:21.213Z,3.10
2022-12-12T02:47:56.145Z,3.15
2022-12-12T02:50:26.793Z,3.17
2022-12-12T02:52:54.688Z,3.11
2022-12-12T02:55:22.589Z,3.06
2022-12-12T02:57:52.976Z,3.05
2022-12-12T03:00:21.630Z,3.06
2022-12-12T03:03:29.746Z,3.14
2022-12-12T03:06:39.376Z,3.24
2022-12-12T03:09:17.316Z,3.45
2022-12-12T03:11:57.015Z,3.63
2022-12-12T03:14:28.154Z,3.76
2022-12-12T03:17:03.374Z,3.86
2022-12-12T03:19:43.724Z,3.95
2022-12-12T03:22:15.445Z,3.97
2022-12-12T03:24:49.206Z,3.97
2022-12-12T03:27:21.734Z,3.85
2022-12-12T03:29:55.044Z,3.66
2022-12-12T03:32:28.208Z,3.47
2022-12-12T03:35:01.483Z,3.51
2022-12-12T03:37:33.073Z,3.53
2022-12-12T03:40:04.759Z,3.47
2022-12-12T03:42:40.078Z,3.51
2022-12-12T03:45:13.267Z,3.49
2022-12-12T03:47:50.180Z,3.55
2022-12-12T03:50:22.126Z,3.57
2022-12-12T03:52:58.156Z,3.64
2022-12-12T03:55:30.629Z,3.75
2022-12-12T03:58:02.361Z,3.74
2022-12-12T04:00:33.090Z,3.72
2022-12-12T04:03:08.136Z,3.57
2022-12-12T04:06:05.463Z,3.34
2022-12-12T04:08:34.863Z,3.33
2022-12-12T04:11:32.427Z,3.26
2022-12-12T04:14:08.788Z,3.20
2022-12-12T04:16:40.337Z,3.32
2022-12-12T04:19:34.714Z,3.42
2022-12-12T04:22:32.172Z,3.52
2022-12-12T04:25:06.224Z,3.50
2022-12-12T04:27:41.155Z,3.50
2022-12-12T04:30:12.815Z,3.38
2022-12-12T04:32:45.156Z,3.28
2022-12-12T04:35:16.905Z,3.35
2022-12-12T04:37:49.147Z,3.33
2022-12-12T04:40:21.974Z,3.14
2022-12-12T04:42:55.915Z,3.03
2022-12-12T04:45:29.641Z,2.80
2022-12-12T04:47:59.401Z,2.75
2022-12-12T04:50:30.410Z,2.82
2022-12-12T04:53:03.088Z,2.93
2022-12-12T04:55:34.183Z,2.92
2022-12-12T04:58:05.428Z,3.05
2022-12-12T05:00:39.488Z,3.00
2022-12-12T05:03:12.831Z,2.98
2022-12-12T05:05:45.731Z,3.14
2022-12-12T05:08:21.630Z,3.14
2022-12-12T05:10:54.625Z,3.14
2022-12-12T05:13:24.399Z,3.07
2022-12-12T05:15:54.693Z,3.06
2022-12-12T05:18:23.470Z,3.07
2022-12-12T05:20:51.483Z,3.24
2022-12-12T05:23:20.832Z,3.28
2022-12-12T05:25:48.685Z,3.27
2022-12-12T05:28:16.408Z,3.26
2022-12-12T05:30:44.187Z,3.42
2022-12-12T05:33:11.929Z,3.37
2022-12-12T05:35:39.752Z,3.45
2022-12-12T05:38:07.453Z,3.56
2022-12-12T05:40:36.483Z,3.41
2022-12-12T05:43:04.819Z,3.49
2022-12-12T05:45:32.541Z,3.48
2022-12-12T05:48:00.242Z,3.36
2022-12-12T05:50:28.072Z,3.32
2022-12-12T05:52:55.779Z,3.31
2022-12-12T05:55:23.505Z,3.27
2022-12-12T05:57:52.809Z,3.17
2022-12-12T06:00:21.387Z,3.14
2022-12-12T06:02:49.661Z,3.14
2022-12-12T06:05:17.666Z,3.14
2022-12-12T06:07:45.553Z,3.13
2022-12-12T06:10:13.617Z,3.15
2022-12-12T06:12:41.431Z,3.22
2022-12-12T06:15:11.507Z,3.33
2022-12-12T06:17:39.619Z,3.28
2022-12-12T06:20:08.360Z,3.15
2022-12-12T06:22:36.293Z,3.23
2022-12-12T06:25:04.505Z,3.35
2022-12-12T06:27:32.193Z,3.27
2022-12-12T06:29:59.876Z,3.23
2022-12-12T06:32:28.944Z,3.24
2022-12-12T06:34:56.708Z,3.19
2022-12-12T06:37:24.372Z,3.14
2022-12-12T06:39:52.509Z,3.10
2022-12-12T06:42:20.293Z,3.17
2022-12-12T06:44:48.105Z,3.28
2022-12-12T06:47:16.009Z,3.39
2022-12-12T06:49:45.070Z,3.38
2022-12-12T06:52:12.853Z,3.36
2022-12-12T06:54:40.699Z,3.38
2022-12-12T06:57:08.505Z,3.49
2022-12-12T06:59:36.273Z,3.52
2022-12-12T07:02:04.157Z,3.42
2022-12-12T07:04:31.986Z,3.36
2022-12-12T07:07:00.999Z,3.16
2022-12-12T07:09:29.133Z,3.20
2022-12-12T07:11:56.765Z,3.11
2022-12-12T07:14:24.566Z,2.97
2022-12-12T07:16:52.194Z,2.98
2022-12-12T07:19:19.983Z,3.06
2022-12-12T07:21:47.731Z,3.08
2022-12-12T07:24:16.845Z,3.01
2022-12-12T07:26:44.658Z,3.12
2022-12-12T07:29:12.678Z,3.05
2022-12-12T07:31:40.343Z,2.98
2022-12-12T07:34:08.124Z,2.94
2022-12-12T07:36:35.817Z,2.85
2022-12-12T07:39:07.746Z,2.72
2022-12-12T07:41:36.872Z,2.71
2022-12-12T07:44:04.784Z,2.78
2022-12-12T07:46:32.719Z,2.81
2022-12-12T07:49:00.427Z,2.82
2022-12-12T07:51:28.215Z,2.78
2022-12-12T07:53:55.864Z,2.79
2022-12-12T07:56:23.621Z,2.92
2022-12-12T07:58:55.378Z,3.06
2022-12-12T08:01:25.251Z,3.00
2022-12-12T08:04:02.332Z,2.92
2022-12-12T08:06:30.096Z,2.95
2022-12-12T08:08:57.856Z,2.89
2022-12-12T08:11:26.659Z,2.80
2022-12-12T08:13:55.890Z,2.82
2022-12-12T08:16:25.887Z,2.78
2022-12-12T08:18:55.212Z,2.79
2022-12-12T08:21:26.140Z,2.78
2022-12-12T08:23:57.494Z,2.98
2022-12-12T08:26:25.954Z,3.09
2022-12-12T08:28:56.164Z,3.28
2022-12-12T08:31:25.060Z,3.27
2022-12-12T08:33:53.108Z,3.31
2022-12-12T08:36:23.650Z,3.39
2022-12-12T08:38:52.307Z,3.41
2022-12-12T08:41:20.900Z,3.44
2022-12-12T08:43:48.646Z,3.48
2022-12-12T08:46:18.860Z,3.50
2022-12-12T08:48:47.406Z,3.48
2022-12-12T08:51:15.258Z,3.39
2022-12-12T08:53:45.779Z,3.43
2022-12-12T08:56:13.696Z,3.54
2022-12-12T08:58:41.441Z,3.65
2022-12-12T09:01:12.502Z,3.76
2022-12-12T09:03:41.854Z,3.82
2022-12-12T09:06:11.227Z,3.81
2022-12-12T09:08:39.673Z,3.65
2022-12-12T09:11:07.783Z,3.57
2022-12-12T09:13:36.056Z,3.52
2022-12-12T09:16:04.114Z,3.58
2022-12-12T09:18:31.922Z,3.61
2022-12-12T09:21:01.075Z,3.53
2022-12-12T09:23:29.688Z,3.50
2022-12-12T09:25:57.524Z,3.61
2022-12-12T09:28:27.006Z,3.75
2022-12-12T09:30:54.740Z,4.00
2022-12-12T09:33:22.430Z,4.23
2022-12-12T09:35:58.528Z,4.36
2022-12-12T09:38:28.785Z,4.49
2022-12-12T09:40:59.779Z,4.59
2022-12-12T09:43:30.648Z,4.59
2022-12-12T09:46:00.006Z,4.83
2022-12-12T09:48:39.568Z,5.08
2022-12-12T09:51:07.624Z,5.09
2022-12-12T09:53:37.409Z,5.02
2022-12-12T09:56:11.486Z,5.09
2022-12-12T09:58:48.319Z,5.03
2022-12-12T10:01:27.048Z,4.89
2022-12-12T10:04:05.492Z,4.96
2022-12-12T10:06:41.349Z,5.42
2022-12-12T10:09:31.550Z,6.29
2022-12-12T10:12:06.489Z,7.16
2022-12-12T10:14:39.844Z,7.54
2022-12-12T10:17:15.055Z,7.42
2022-12-12T10:19:49.168Z,7.35
2022-12-12T10:22:24.619Z,7.12
2022-12-12T10:24:59.116Z,6.60
2022-12-12T10:27:26.874Z,6.04
2022-12-12T10:29:55.084Z,7.10
2022-12-12T10:32:37.706Z,8.93
2022-12-12T10:35:26.169Z,9.84
2022-12-12T10:38:07.218Z,8.84
2022-12-12T10:40:48.766Z,7.77
2022-12-12T10:43:22.411Z,7.84
2022-12-12T10:46:07.342Z,8.82
2022-12-12T10:48:35.530Z,8.53
2022-12-12T10:51:07.023Z,8.02
2022-12-12T10:53:35.606Z,7.34
2022-12-12T10:56:09.107Z,6.91
2022-12-12T10:58:39.561Z,6.81
2022-12-12T11:01:14.078Z,6.89
2022-12-12T11:03:45.854Z,7.12
2022-12-12T11:06:16.570Z,7.50
2022-12-12T11:08:56.403Z,8.00
2022-12-12T11:11:26.614Z,9.03
2022-12-12T11:13:56.155Z,9.87
2022-12-12T11:16:25.947Z,9.61
2022-12-12T11:19:04.966Z,8.92
2022-12-12T11:21:34.871Z,9.11
2022-12-12T11:24:07.936Z,9.46
2022-12-12T11:26:45.932Z,9.35
2022-12-12T11:29:29.754Z,8.76
2022-12-12T11:31:58.913Z,8.04
2022-12-12T11:34:28.868Z,7.69
2022-12-12T11:36:59.474Z,7.46
2022-12-12T11:39:30.066Z,7.28
2022-12-12T11:42:01.831Z,7.00
2022-12-12T11:44:35.136Z,6.67
2022-12-12T11:47:22.279Z,6.67
2022-12-12T11:49:55.170Z,6.66
2022-12-12T11:52:24.806Z,6.55
2022-12-12T11:54:53.912Z,6.34
2022-12-12T11:57:39.543Z,6.07
2022-12-12T12:00:13.776Z,5.82
2022-12-12T12:03:20.301Z,5.63
2022-12-12T12:05:59.856Z,5.56
2022-12-12T12:08:44.266Z,5.53
2022-12-12T12:11:22.442Z,5.54
2022-12-12T12:14:14.689Z,5.47
2022-12-12T12:16:52.784Z,5.45
2022-12-12T12:19:28.519Z,5.37
2022-12-12T12:22:06.881Z,5.43
2022-12-12T12:25:09.753Z,5.37
2022-12-12T12:27:47.037Z,5.26
2022-12-12T12:30:21.336Z,5.23
2022-12-12T12:33:07.950Z,5.18
2022-12-12T12:35:48.451Z,5.12
2022-12-12T12:38:26.443Z,5.08
2022-12-12T12:41:11.278Z,5.20
2022-12-12T12:43:58.097Z,5.22
2022-12-12T12:46:39.777Z,5.15
2022-12-12T12:49:14.979Z,5.16
2022-12-12T12:51:50.741Z,5.12
2022-12-12T12:54:24.225Z,5.16
2022-12-12T12:56:58.236Z,5.06
2022-12-12T12:59:32.168Z,4.96
2022-12-12T13:02:06.398Z,5.02
2022-12-12T13:04:41.525Z,5.04
2022-12-12T13:07:16.267Z,4.99
2022-12-12T13:09:50.244Z,5.00
2022-12-12T13:12:31.610Z,4.99
2022-12-12T13:15:03.053Z,4.97
2022-12-12T13:17:45.239Z,4.79
2022-12-12T13:20:17.097Z,4.90
2022-12-12T13:22:56.099Z,4.95
2022-12-12T13:25:33.950Z,4.87
2022-12-12T13:28:06.584Z,5.00
2022-12-12T13:30:48.158Z,5.04
2022-12-12T13:33:36.550Z,5.01
2022-12-12T13:36:11.159Z,4.90
2022-12-12T13:38:39.772Z,4.82
2022-12-12T13:41:08.921Z,4.78
2022-12-12T13:43:48.476Z,4.70
2022-12-12T13:46:35.450Z,4.49
2022-12-12T13:49:16.700Z,4.47
2022-12-12T13:51:45.572Z,4.37
2022-12-12T13:54:53.066Z,4.33
2022-12-12T13:57:27.184Z,4.39
2022-12-12T14:00:21.008Z,4.39
2022-12-12T14:03:02.310Z,4.18
2022-12-12T14:05:36.324Z,4.11
2022-12-12T14:08:09.321Z,4.20
2022-12-12T14:10:38.854Z,4.25
2022-12-12T14:13:28.037Z,4.25
2022-12-12T14:16:09.257Z,4.25
2022-12-12T14:18:40.695Z,4.24
2022-12-12T14:21:13.935Z,4.20
2022-12-12T14:23:43.041Z,4.15
2022-12-12T14:26:48.930Z,4.09
2022-12-12T14:29:25.235Z,4.02
2022-12-12T14:32:02.770Z,4.03
2022-12-12T14:34:38.642Z,3.95
2022-12-12T14:37:34.780Z,3.87
2022-12-12T14:40:10.857Z,3.85
2022-12-12T14:43:21.349Z,3.91
2022-12-12T14:45:37.731Z,4.02
2022-12-12T14:48:16.406Z,4.05
2022-12-12T14:51:09.135Z,4.00
2022-12-12T14:53:48.388Z,4.13
2022-12-12T14:56:18.716Z,4.14
2022-12-12T14:58:50.634Z,4.16
2022-12-12T15:01:27.911Z,4.23
2022-12-12T15:03:56.034Z,4.16
2022-12-12T15:06:33.102Z,4.06
2022-12-12T15:09:16.163Z,4.07
2022-12-12T15:11:44.474Z,3.87
2022-12-12T15:14:19.188Z,3.87
2022-12-12T15:16:50.933Z,4.00
2022-12-12T15:19:24.287Z,3.94
2022-12-12T15:21:52.368Z,3.95
2022-12-12T15:24:23.683Z,4.06
2022-12-12T15:26:54.050Z,4.18
2022-12-12T15:29:24.998Z,4.21
2022-12-12T15:31:58.506Z,4.24
2022-12-12T15:34:38.403Z,4.06
2022-12-12T15:37:28.040Z,3.97
2022-12-12T15:40:26.288Z,4.02
2022-12-12T15:42:56.793Z,3.81
2022-12-12T15:45:30.494Z,3.65
2022-12-12T15:48:00.697Z,3.76
2022-12-12T15:50:34.441Z,3.87
2022-12-12T15:53:19.932Z,4.00
2022-12-12T15:55:59.420Z,3.93
2022-12-12T15:58:31.090Z,3.92
2022-12-12T16:01:05.637Z,4.02
2022-12-12T16:03:34.065Z,4.07
2022-12-12T16:06:05.497Z,4.11
2022-12-12T16:08:39.596Z,4.19
2022-12-12T16:11:38.153Z,4.20
2022-12-12T16:14:23.483Z,4.22
2022-12-12T16:16:57.060Z,4.21
2022-12-12T16:19:41.588Z,4.09
2022-12-12T16:22:17.046Z,3.99
2022-12-12T16:24:50.469Z,3.98
2022-12-12T16:27:19.854Z,3.99
2022-12-12T16:29:48.108Z,3.89
2022-12-12T16:32:17.822Z,3.89
2022-12-12T16:34:45.986Z,3.93
2022-12-12T16:37:15.197Z,3.99
2022-12-12T16:39:42.982Z,4.01
2022-12-12T16:42:15.151Z,3.87
2022-12-12T16:44:44.759Z,3.86
2022-12-12T16:47:16.986Z,3.83
2022-12-12T16:49:44.765Z,3.59
2022-12-12T16:52:14.049Z,3.34
2022-12-12T16:54:42.025Z,3.19
2022-12-12T16:57:09.808Z,3.06
2022-12-12T16:59:38.298Z,2.93
2022-12-12T17:02:17.789Z,2.97
2022-12-12T17:04:45.423Z,2.92
2022-12-12T17:07:13.859Z,2.87
2022-12-12T17:09:41.648Z,3.03
2022-12-12T17:12:36.355Z,3.20
2022-12-12T17:15:02.353Z,3.42
2022-12-12T17:17:31.359Z,3.59
2022-12-12T17:19:59.267Z,3.66
2022-12-12T17:22:27.252Z,3.74
2022-12-12T17:24:54.954Z,3.78
2022-12-12T17:27:22.620Z,3.58
2022-12-12T17:29:50.335Z,3.65
2022-12-12T17:32:22.824Z,3.74
2022-12-12T17:34:53.403Z,3.68
2022-12-12T17:37:21.105Z,3.53
2022-12-12T17:39:48.780Z,3.55
2022-12-12T17:42:16.578Z,3.53
2022-12-12T17:44:44.286Z,3.27
2022-12-12T17:47:12.457Z,3.07
2022-12-12T17:49:40.263Z,3.13
2022-12-12T17:52:09.431Z,3.30
2022-12-12T17:54:37.113Z,3.24
2022-12-12T17:57:04.897Z,3.36
2022-12-12T17:59:32.639Z,3.47
2022-12-12T18:02:00.425Z,3.54
2022-12-12T18:04:28.799Z,3.31
2022-12-12T18:06:56.599Z,3.16
2022-12-12T18:09:26.003Z,3.03
2022-12-12T18:11:53.750Z,3.01
2022-12-12T18:14:21.481Z,2.84
2022-12-12T18:16:51.317Z,2.73
2022-12-12T18:19:19.671Z,2.64
2022-12-12T18:22:03.264Z,2.75
2022-12-12T18:24:33.168Z,2.81
2022-12-12T18:27:03.369Z,2.88
2022-12-12T18:29:32.241Z,2.79
2022-12-12T18:32:00.473Z,2.68
2022-12-12T18:34:28.393Z,2.59
2022-12-12T18:36:56.070Z,2.52
2022-12-12T18:39:23.864Z,2.46
2022-12-12T18:41:53.100Z,2.39
2022-12-12T18:44:21.076Z,2.32
2022-12-12T18:46:50.710Z,2.29
2022-12-12T18:49:18.813Z,2.23
2022-12-12T18:51:46.923Z,2.24
2022-12-12T18:54:16.238Z,2.24
2022-12-12T18:56:45.006Z,2.23
2022-12-12T18:59:14.941Z,2.20
2022-12-12T19:01:43.021Z,2.19
2022-12-12T19:04:13.382Z,2.26
2022-12-12T19:06:43.454Z,2.24
2022-12-12T19:09:15.173Z,2.18
2022-12-12T19:11:43.235Z,2.12
2022-12-12T19:14:13.032Z,2.12
2022-12-12T19:16:42.501Z,2.09
2022-12-12T19:19:10.369Z,2.09
2022-12-12T19:21:38.521Z,2.08
2022-12-12T19:24:09.142Z,2.01
2022-12-12T19:26:38.304Z,2.03
2022-12-12T19:29:07.993Z,1.95
2022-12-12T19:31:36.397Z,1.98
2022-12-12T19:34:07.120Z,1.95
2022-12-12T19:36:37.677Z,1.89
2022-12-12T19:39:07.467Z,1.89
2022-12-12T19:41:35.947Z,1.87
2022-12-12T19:44:08.690Z,1.88
2022-12-12T19:46:36.683Z,1.91
2022-12-12T19:49:08.489Z,1.97
2022-12-12T19:51:39.334Z,2.00
2022-12-12T19:54:11.093Z,1.97
2022-12-12T19:56:40.980Z,2.11
2022-12-12T19:59:09.965Z,2.36
2022-12-12T20:01:38.986Z,2.37
2022-12-12T20:04:09.872Z,2.14
2022-12-12T20:06:44.631Z,2.09
2022-12-12T20:09:13.821Z,2.00
2022-12-12T20:11:45.257Z,1.85
2022-12-12T20:14:14.923Z,1.82
2022-12-12T20:16:45.952Z,1.82
2022-12-12T20:19:16.235Z,1.80
2022-12-12T20:22:02.157Z,1.76
2022-12-12T20:24:30.786Z,1.71
2022-12-12T20:26:59.562Z,1.62
2022-12-12T20:29:27.889Z,1.57
2022-12-12T20:31:55.640Z,1.51
2022-12-12T20:34:25.252Z,1.49
2022-12-12T20:36:55.391Z,1.52
2022-12-12T20:39:23.218Z,1.46
2022-12-12T20:41:53.186Z,1.48
2022-12-12T20:44:20.868Z,1.54
2022-12-12T20:46:48.577Z,1.51
2022-12-12T20:49:18.051Z,1.44
2022-12-12T20:51:56.482Z,1.42
2022-12-12T20:54:25.991Z,1.67
2022-12-12T20:56:56.930Z,1.59
2022-12-12T20:59:24.909Z,1.53
2022-12-12T21:01:52.856Z,1.47
2022-12-12T21:04:21.146Z,1.54
2022-12-12T21:06:51.817Z,1.82
2022-12-12T21:09:25.076Z,1.96
2022-12-12T21:11:54.675Z,1.99
2022-12-12T21:14:22.673Z,1.83
2022-12-12T21:16:50.524Z,1.86
2022-12-12T21:19:19.231Z,1.76
2022-12-12T21:21:47.547Z,1.94
2022-12-12T21:24:18.229Z,1.91
2022-12-12T21:26:47.054Z,2.01
2022-12-12T21:29:15.536Z,1.86
2022-12-12T21:31:51.518Z,1.73
2022-12-12T21:34:20.230Z,1.60
2022-12-12T21:36:50.331Z,1.60
2022-12-12T21:39:19.576Z,1.67
2022-12-12T21:41:47.403Z,1.59
2022-12-12T21:44:15.093Z,1.55
2022-12-12T21:46:43.893Z,1.47
2022-12-12T21:49:28.112Z,1.36
2022-12-12T21:51:57.824Z,1.31
2022-12-12T21:54:29.031Z,1.29
2022-12-12T21:56:57.059Z,1.36
2022-12-12T21:59:25.647Z,1.39
2022-12-12T22:01:55.463Z,1.31
2022-12-12T22:04:23.147Z,1.39
2022-12-12T22:06:51.164Z,1.30
2022-12-12T22:09:19.416Z,1.22
2022-12-12T22:11:51.944Z,1.16
2022-12-12T22:14:21.230Z,1.36
2022-12-12T22:16:49.660Z,1.42
2022-12-12T22:19:18.482Z,1.30
2022-12-12T22:21:48.247Z,1.26
2022-12-12T22:24:16.778Z,1.12
2022-12-12T22:26:46.490Z,1.09
2022-12-12T22:29:21.149Z,1.37
2022-12-12T22:31:52.084Z,1.41
2022-12-12T22:34:22.384Z,1.46
2022-12-12T22:36:51.080Z,1.39
2022-12-12T22:39:22.174Z,1.45
2022-12-12T22:41:50.636Z,1.56
2022-12-12T22:44:21.350Z,1.43
2022-12-12T22:46:50.675Z,1.25
2022-12-12T22:49:22.346Z,1.20
2022-12-12T22:51:51.054Z,1.18
2022-12-12T22:54:19.729Z,1.29
2022-12-12T22:56:47.478Z,1.23
2022-12-12T22:59:15.594Z,1.15
2022-12-12T23:01:44.879Z,1.17
2022-12-12T23:04:14.055Z,1.06
2022-12-12T23:06:42.678Z,0.91
2022-12-12T23:09:15.262Z,0.83
2022-12-12T23:11:43.845Z,0.69
2022-12-12T23:14:15.183Z,0.63
2022-12-12T23:16:45.532Z,0.79
2022-12-12T23:19:15.630Z,0.71
2022-12-12T23:21:43.611Z,0.62
2022-12-12T23:24:11.529Z,0.60
2022-12-12T23:26:39.409Z,0.83
2022-12-12T23:29:09.392Z,0.74
2022-12-12T23:31:39.188Z,0.67
2022-12-12T23:34:10.552Z,0.59
2022-12-12T23:36:38.974Z,0.75
2022-12-12T23:39:08.666Z,0.71
2022-12-12T23:41:37.103Z,0.66
2022-12-12T23:44:05.224Z,0.64
2022-12-12T23:46:33.774Z,0.68
2022-12-12T23:49:03.581Z,0.64
2022-12-12T23:51:34.935Z,0.59
2022-12-12T23:54:04.721Z,0.65
2022-12-12T23:56:32.488Z,0.69
2022-12-12T23:59:01.061Z,0.88
